Time;durP1;ratioP1;P1;durP2;ratioP2;P2;SDS_P1;SDS_P2;PMS_P1;PMS_P2;Temp;Humidity;BMP_temperature;BMP_pressure;BME280_temperature;BME280_humidity;BME280_pressure;Samples;Min_cycle;Max_cycle;Signal;HPM_P1;HPM_P2
2023/03/21 00:00:55;;;;;;;;;;;10.60;99.90;;;;;;5135183;27;20354;-65
2023/03/21 00:03:21;;;;;;;;;;;10.60;99.90;;;;;;5126217;27;19963;-65
2023/03/21 00:05:50;;;;;;;;;;;10.50;99.90;;;;;;5140262;27;19911;-65
2023/03/21 00:08:16;;;;;;;;;;;10.60;99.90;;;;;;5141579;27;19911;-65
2023/03/21 00:10:42;;;;;;;;;;;10.60;99.90;;;;;;5124872;27;19912;-66
2023/03/21 00:13:08;;;;;;;;;;;10.50;99.90;;;;;;5133346;27;19931;-65
2023/03/21 00:15:37;;;;;;;;;;;10.50;99.90;;;;;;5124937;27;19915;-64
2023/03/21 00:18:03;;;;;;;;;;;10.50;99.90;;;;;;5124787;27;20374;-65
2023/03/21 00:20:33;;;;;;;;;;;10.40;99.90;;;;;;5145155;27;19967;-65
2023/03/21 00:23:00;;;;;;;;;;;10.40;99.90;;;;;;5130641;27;19925;-65
2023/03/21 00:25:26;;;;;;;;;;;10.40;99.90;;;;;;5141102;27;19911;-65
2023/03/21 00:27:52;;;;;;;;;;;10.40;99.90;;;;;;5132372;27;19926;-64
2023/03/21 00:30:18;;;;;;;;;;;10.30;99.90;;;;;;5138608;27;19979;-65
2023/03/21 00:32:45;;;;;;;;;;;10.20;99.90;;;;;;5134142;27;19962;-65
2023/03/21 00:35:10;;;;;;;;;;;10.20;99.90;;;;;;5138728;27;19911;-64
2023/03/21 00:37:36;;;;;;;;;;;10.20;99.90;;;;;;5135271;27;20336;-64
2023/03/21 00:40:04;;;;;;;;;;;10.20;99.90;;;;;;5129935;27;19911;-64
2023/03/21 00:42:30;;;;;;;;;;;10.30;99.90;;;;;;5135233;27;19992;-64
2023/03/21 00:44:55;;;;;;;;;;;10.30;99.90;;;;;;5130628;27;19916;-64
2023/03/21 00:47:21;;;;;;;;;;;10.40;99.90;;;;;;5135452;27;19961;-64
2023/03/21 00:49:46;;;;;;;;;;;10.40;99.90;;;;;;5118251;27;19951;-64
2023/03/21 00:52:12;;;;;;;;;;;10.40;99.90;;;;;;5130983;27;20379;-64
2023/03/21 00:54:38;;;;;;;;;;;10.50;99.90;;;;;;5119419;27;19916;-65
2023/03/21 00:57:04;;;;;;;;;;;10.40;99.90;;;;;;5129539;27;19908;-65
2023/03/21 00:59:29;;;;;;;;;;;10.50;99.90;;;;;;5136422;27;19911;-65
2023/03/21 01:01:59;;;;;;;;;;;10.40;99.90;;;;;;5127229;27;20378;-66
2023/03/21 01:04:25;;;;;;;;;;;10.40;99.90;;;;;;5136241;27;20007;-65
2023/03/21 01:06:52;;;;;;;;;;;10.40;99.90;;;;;;5129808;27;19913;-65
2023/03/21 01:09:18;;;;;;;;;;;10.30;99.90;;;;;;5107873;28;19911;-65
2023/03/21 01:11:44;;;;;;;;;;;10.20;99.90;;;;;;5122563;28;19936;-65
2023/03/21 01:14:10;;;;;;;;;;;10.20;99.90;;;;;;5126990;28;19923;-65
2023/03/21 01:16:36;;;;;;;;;;;10.10;99.90;;;;;;5119073;28;19970;-65
2023/03/21 01:19:03;;;;;;;;;;;10.20;99.90;;;;;;5123370;27;20367;-64
2023/03/21 01:21:29;;;;;;;;;;;10.20;99.90;;;;;;5118863;28;19951;-65
2023/03/21 01:23:54;;;;;;;;;;;10.20;99.90;;;;;;5122036;28;19957;-64
2023/03/21 01:26:20;;;;;;;;;;;10.30;99.90;;;;;;5122767;28;19962;-65
2023/03/21 01:28:45;;;;;;;;;;;10.30;99.90;;;;;;5118646;28;19960;-64
2023/03/21 01:31:12;;;;;;;;;;;10.30;99.90;;;;;;5125317;28;19912;-65
2023/03/21 01:33:38;;;;;;;;;;;10.40;99.90;;;;;;5127992;28;19930;-64
2023/03/21 01:36:04;;;;;;;;;;;10.50;99.90;;;;;;5129578;28;19915;-65
2023/03/21 01:38:30;;;;;;;;;;;10.50;99.90;;;;;;5129196;27;19911;-65
2023/03/21 01:40:58;;;;;;;;;;;10.40;99.90;;;;;;5128184;27;19911;-65
2023/03/21 01:43:28;;;;;;;;;;;10.40;99.90;;;;;;5127695;28;20306;-65
2023/03/21 01:46:06;;;;;;;;;;;10.40;99.90;;;;;;5121651;28;19911;-65
2023/03/21 01:48:32;;;;;;;;;;;10.40;99.90;;;;;;5122390;28;19918;-65
2023/03/21 01:50:59;;;;;;;;;;;10.40;99.90;;;;;;5134689;27;19915;-64
2023/03/21 01:53:28;;;;;;;;;;;10.40;99.90;;;;;;5136289;27;20060;-66
2023/03/21 01:55:56;;;;;;;;;;;10.40;99.90;;;;;;5122889;27;20363;-65
2023/03/21 01:58:22;;;;;;;;;;;10.40;99.90;;;;;;5131613;27;19994;-65
2023/03/21 02:00:49;;;;;;;;;;;10.40;99.90;;;;;;5131880;27;20289;-64
2023/03/21 02:03:15;;;;;;;;;;;10.50;99.90;;;;;;5127305;27;19919;-65
2023/03/21 02:06:00;;;;;;;;;;;10.40;99.90;;;;;;5128522;27;19915;-64
2023/03/21 02:08:28;;;;;;;;;;;10.40;99.90;;;;;;5138202;27;19919;-64
2023/03/21 02:10:53;;;;;;;;;;;10.30;99.90;;;;;;5137462;27;19951;-64
2023/03/21 02:13:19;;;;;;;;;;;10.30;99.90;;;;;;5131024;27;19951;-64
2023/03/21 02:15:53;;;;;;;;;;;10.20;99.90;;;;;;5129284;27;19911;-64
2023/03/21 02:18:28;;;;;;;;;;;10.20;99.90;;;;;;5132378;27;19994;-64
2023/03/21 02:21:12;;;;;;;;;;;10.30;99.90;;;;;;5127810;27;19947;-65
2023/03/21 02:23:40;;;;;;;;;;;10.30;99.90;;;;;;5132733;27;19923;-64
2023/03/21 02:26:15;;;;;;;;;;;10.30;99.90;;;;;;5123843;27;19918;-64
2023/03/21 02:28:40;;;;;;;;;;;10.20;99.90;;;;;;5120254;27;19918;-64
2023/03/21 02:31:13;;;;;;;;;;;10.20;99.90;;;;;;5129874;27;19911;-64
2023/03/21 02:33:57;;;;;;;;;;;10.10;99.90;;;;;;5120771;27;19923;-64
2023/03/21 02:36:29;;;;;;;;;;;10.10;99.90;;;;;;5115839;27;19919;-64
2023/03/21 02:39:00;;;;;;;;;;;10.10;99.90;;;;;;5125258;27;19964;-64
2023/03/21 02:41:28;;;;;;;;;;;10.10;99.90;;;;;;5127745;27;19912;-65
2023/03/21 02:44:14;;;;;;;;;;;10.10;99.90;;;;;;5127244;27;19926;-64
2023/03/21 02:47:09;;;;;;;;;;;10.10;99.90;;;;;;5124178;27;19911;-64
2023/03/21 02:49:37;;;;;;;;;;;10.10;99.90;;;;;;5109979;27;19998;-64
2023/03/21 02:52:04;;;;;;;;;;;10.10;99.90;;;;;;5128310;27;19912;-65
2023/03/21 02:54:31;;;;;;;;;;;10.00;99.90;;;;;;5130531;27;19912;-65
2023/03/21 02:56:58;;;;;;;;;;;10.00;99.90;;;;;;5123775;27;19911;-65
2023/03/21 02:59:26;;;;;;;;;;;10.00;99.90;;;;;;5131790;27;20278;-64
2023/03/21 03:01:52;;;;;;;;;;;10.00;99.90;;;;;;5124749;27;19912;-65
2023/03/21 03:04:18;;;;;;;;;;;10.00;99.90;;;;;;5123589;27;19920;-64
2023/03/21 03:06:56;;;;;;;;;;;9.90;99.90;;;;;;5118618;27;19934;-65
2023/03/21 03:09:22;;;;;;;;;;;9.90;99.90;;;;;;5134097;27;19965;-65
2023/03/21 03:11:50;;;;;;;;;;;9.90;99.90;;;;;;5124955;27;19915;-65
2023/03/21 03:14:41;;;;;;;;;;;9.90;99.90;;;;;;5129829;27;19919;-66
2023/03/21 03:17:13;;;;;;;;;;;9.90;99.90;;;;;;5123286;27;19919;-65
2023/03/21 03:19:47;;;;;;;;;;;9.90;99.90;;;;;;5118770;27;19915;-64
2023/03/21 03:22:16;;;;;;;;;;;9.90;99.90;;;;;;5132939;27;19911;-64
2023/03/21 03:24:46;;;;;;;;;;;9.90;99.90;;;;;;5122818;27;19919;-64
2023/03/21 03:27:16;;;;;;;;;;;9.90;99.90;;;;;;5125987;27;20283;-64
2023/03/21 03:29:43;;;;;;;;;;;9.90;99.90;;;;;;5121241;27;19916;-64
2023/03/21 03:32:29;;;;;;;;;;;9.80;99.90;;;;;;5128537;27;20003;-65
2023/03/21 03:34:55;;;;;;;;;;;9.80;99.90;;;;;;5129594;27;19916;-64
2023/03/21 03:37:25;;;;;;;;;;;9.80;99.90;;;;;;5131247;27;19911;-64
2023/03/21 03:39:56;;;;;;;;;;;9.70;99.90;;;;;;5129970;27;19991;-65
2023/03/21 03:42:28;;;;;;;;;;;9.70;99.90;;;;;;5127802;27;19919;-65
2023/03/21 03:44:53;;;;;;;;;;;9.70;99.90;;;;;;5135453;27;20434;-65
2023/03/21 03:47:34;;;;;;;;;;;9.60;99.90;;;;;;5123794;27;19915;-65
2023/03/21 03:50:04;;;;;;;;;;;9.60;99.90;;;;;;5123957;27;20398;-65
2023/03/21 03:52:33;;;;;;;;;;;9.50;99.90;;;;;;5125444;27;20446;-65
2023/03/21 03:54:58;;;;;;;;;;;9.50;99.90;;;;;;5123737;27;19916;-64
2023/03/21 03:57:25;;;;;;;;;;;9.50;99.90;;;;;;5125803;27;20276;-65
2023/03/21 03:59:51;;;;;;;;;;;9.50;99.90;;;;;;5125892;27;19964;-66
2023/03/21 04:02:17;;;;;;;;;;;9.50;99.90;;;;;;5124597;27;19912;-64
2023/03/21 04:04:42;;;;;;;;;;;9.50;99.90;;;;;;5116500;27;19927;-65
2023/03/21 04:07:08;;;;;;;;;;;9.50;99.90;;;;;;5124059;27;19933;-65
2023/03/21 04:09:33;;;;;;;;;;;9.50;99.90;;;;;;5123600;27;20280;-64
2023/03/21 04:11:59;;;;;;;;;;;9.50;99.90;;;;;;5116976;27;19998;-63
2023/03/21 04:14:25;;;;;;;;;;;9.60;99.90;;;;;;5123959;27;19915;-64
2023/03/21 04:16:51;;;;;;;;;;;9.60;99.90;;;;;;5120698;27;19912;-65
2023/03/21 04:19:17;;;;;;;;;;;9.60;99.90;;;;;;5123615;27;19998;-65
2023/03/21 04:21:43;;;;;;;;;;;9.60;99.90;;;;;;5122226;27;20352;-64
2023/03/21 04:24:08;;;;;;;;;;;9.60;99.90;;;;;;5127697;27;20161;-64
2023/03/21 04:26:34;;;;;;;;;;;9.50;99.90;;;;;;5121537;27;20371;-64
2023/03/21 04:29:01;;;;;;;;;;;9.50;99.90;;;;;;5127244;27;20046;-65
2023/03/21 04:31:29;;;;;;;;;;;9.60;99.90;;;;;;5124982;27;20332;-66
2023/03/21 04:33:56;;;;;;;;;;;9.60;99.90;;;;;;5127398;27;19998;-65
2023/03/21 04:36:29;;;;;;;;;;;9.60;99.90;;;;;;5126377;27;20282;-65
2023/03/21 04:38:59;;;;;;;;;;;9.60;99.90;;;;;;5124508;27;19963;-65
2023/03/21 04:41:26;;;;;;;;;;;9.60;99.90;;;;;;5123197;27;19912;-67
2023/03/21 04:43:51;;;;;;;;;;;9.60;99.90;;;;;;5109007;28;19923;-65
2023/03/21 04:46:17;;;;;;;;;;;9.60;99.90;;;;;;5126264;27;20016;-65
2023/03/21 04:48:42;;;;;;;;;;;9.60;99.90;;;;;;5126099;27;19918;-65
2023/03/21 04:51:08;;;;;;;;;;;9.60;99.90;;;;;;5125433;27;20067;-65
2023/03/21 04:53:34;;;;;;;;;;;9.60;99.90;;;;;;5122085;27;19924;-65
2023/03/21 04:55:59;;;;;;;;;;;9.60;99.90;;;;;;5122090;27;19911;-65
2023/03/21 04:58:25;;;;;;;;;;;9.60;99.90;;;;;;5125421;27;19911;-66
2023/03/21 05:00:51;;;;;;;;;;;9.60;99.90;;;;;;5121678;28;20328;-65
2023/03/21 05:03:18;;;;;;;;;;;9.70;99.90;;;;;;5126460;28;19944;-65
2023/03/21 05:05:44;;;;;;;;;;;9.70;99.90;;;;;;5123034;28;19912;-65
2023/03/21 05:08:11;;;;;;;;;;;9.70;99.90;;;;;;5106799;28;20420;-65
2023/03/21 05:10:36;;;;;;;;;;;9.70;99.90;;;;;;5126779;27;19912;-66
2023/03/21 05:13:02;;;;;;;;;;;9.70;99.90;;;;;;5129237;27;20288;-66
2023/03/21 05:15:27;;;;;;;;;;;9.70;99.90;;;;;;5126065;28;19977;-65
2023/03/21 05:17:53;;;;;;;;;;;9.70;99.90;;;;;;5126932;28;19911;-66
2023/03/21 05:20:19;;;;;;;;;;;9.80;99.90;;;;;;5124996;28;20029;-65
2023/03/21 05:22:49;;;;;;;;;;;9.70;99.90;;;;;;5126249;28;20002;-65
2023/03/21 05:25:17;;;;;;;;;;;9.70;99.90;;;;;;5123309;27;19964;-65
2023/03/21 05:27:44;;;;;;;;;;;9.70;99.90;;;;;;5123739;27;19915;-64
2023/03/21 05:30:11;;;;;;;;;;;9.70;99.90;;;;;;5129545;27;19915;-64
2023/03/21 05:32:36;;;;;;;;;;;9.70;99.90;;;;;;5126781;27;19977;-64
2023/03/21 05:35:02;;;;;;;;;;;9.70;99.90;;;;;;5127280;27;20386;-65
2023/03/21 05:37:28;;;;;;;;;;;9.60;99.90;;;;;;5128609;27;19998;-65
2023/03/21 05:39:54;;;;;;;;;;;9.60;99.90;;;;;;5127613;27;20002;-66
2023/03/21 05:42:19;;;;;;;;;;;9.70;99.90;;;;;;5126854;27;19915;-66
2023/03/21 05:44:45;;;;;;;;;;;9.70;99.90;;;;;;5127527;27;19923;-65
2023/03/21 05:47:11;;;;;;;;;;;9.60;99.90;;;;;;5131073;27;20342;-66
2023/03/21 05:49:37;;;;;;;;;;;9.60;99.90;;;;;;5125933;27;19971;-66
2023/03/21 05:52:03;;;;;;;;;;;9.70;99.90;;;;;;5128278;27;20006;-66
2023/03/21 05:54:28;;;;;;;;;;;9.70;99.90;;;;;;5127674;27;20136;-64
2023/03/21 05:56:54;;;;;;;;;;;9.70;99.90;;;;;;5132993;27;20005;-65
2023/03/21 05:59:20;;;;;;;;;;;9.80;99.90;;;;;;5126676;27;19919;-65
2023/03/21 06:01:45;;;;;;;;;;;9.80;99.90;;;;;;5127780;27;19915;-65
2023/03/21 06:04:11;;;;;;;;;;;9.80;99.90;;;;;;5109013;27;19918;-66
2023/03/21 06:06:37;;;;;;;;;;;9.80;99.90;;;;;;5121533;27;19923;-64
2023/03/21 06:09:03;;;;;;;;;;;9.80;99.90;;;;;;5122218;27;20032;-65
2023/03/21 06:11:30;;;;;;;;;;;9.80;99.90;;;;;;5127345;27;19915;-65
2023/03/21 06:13:55;;;;;;;;;;;9.90;99.90;;;;;;5129392;27;20019;-65
2023/03/21 06:16:21;;;;;;;;;;;9.90;99.90;;;;;;5111459;27;20393;-65
2023/03/21 06:18:47;;;;;;;;;;;10.00;99.90;;;;;;5126787;27;20410;-66
2023/03/21 06:21:12;;;;;;;;;;;9.90;99.90;;;;;;5128063;27;19972;-65
2023/03/21 06:23:38;;;;;;;;;;;10.00;99.90;;;;;;5129141;27;19926;-65
2023/03/21 06:26:04;;;;;;;;;;;10.00;99.90;;;;;;5126536;27;19912;-65
2023/03/21 06:28:30;;;;;;;;;;;10.00;99.90;;;;;;5127992;27;19966;-65
2023/03/21 06:30:56;;;;;;;;;;;10.00;99.90;;;;;;5128973;27;20003;-65
2023/03/21 06:33:21;;;;;;;;;;;10.00;99.90;;;;;;5128501;27;20380;-65
2023/03/21 06:35:53;;;;;;;;;;;10.00;99.90;;;;;;5122556;27;20018;-66
2023/03/21 06:38:19;;;;;;;;;;;10.00;99.90;;;;;;5120370;27;19916;-65
2023/03/21 06:40:46;;;;;;;;;;;10.10;99.90;;;;;;5125018;27;19956;-66
2023/03/21 06:43:12;;;;;;;;;;;10.10;99.90;;;;;;5122976;27;19919;-65
2023/03/21 06:45:37;;;;;;;;;;;10.10;99.90;;;;;;5122779;27;20320;-64
2023/03/21 06:48:03;;;;;;;;;;;10.10;99.90;;;;;;5118060;27;19912;-66
2023/03/21 06:50:28;;;;;;;;;;;10.20;99.90;;;;;;5115129;27;20359;-65
2023/03/21 06:52:56;;;;;;;;;;;10.20;99.90;;;;;;5113017;27;20271;-66
2023/03/21 06:55:25;;;;;;;;;;;10.30;99.90;;;;;;5122800;27;20359;-66
2023/03/21 06:57:51;;;;;;;;;;;10.30;99.90;;;;;;5128389;27;19911;-65
2023/03/21 07:00:17;;;;;;;;;;;10.20;99.90;;;;;;5128189;27;19973;-66
2023/03/21 07:02:43;;;;;;;;;;;10.30;99.90;;;;;;5128163;27;19919;-65
2023/03/21 07:05:09;;;;;;;;;;;10.30;99.90;;;;;;5129170;27;19946;-65
2023/03/21 07:07:34;;;;;;;;;;;10.30;99.90;;;;;;5124714;27;19918;-65
2023/03/21 07:10:00;;;;;;;;;;;10.40;99.90;;;;;;5135424;27;19994;-65
2023/03/21 07:12:25;;;;;;;;;;;10.40;99.90;;;;;;5125456;27;19915;-66
2023/03/21 07:14:51;;;;;;;;;;;10.40;99.90;;;;;;5127176;27;20007;-65
2023/03/21 07:17:17;;;;;;;;;;;10.30;99.90;;;;;;5124376;27;20350;-65
2023/03/21 07:19:42;;;;;;;;;;;10.30;99.90;;;;;;5123555;27;19912;-65
2023/03/21 07:22:08;;;;;;;;;;;10.30;99.90;;;;;;5126636;27;20368;-66
2023/03/21 07:24:33;;;;;;;;;;;10.30;99.90;;;;;;5115585;27;20308;-65
2023/03/21 07:26:59;;;;;;;;;;;10.30;99.90;;;;;;5128923;27;20325;-65
2023/03/21 07:29:25;;;;;;;;;;;10.40;99.90;;;;;;5130644;27;20304;-65
2023/03/21 07:31:50;;;;;;;;;;;10.40;99.90;;;;;;5116581;27;19912;-65
2023/03/21 07:34:17;;;;;;;;;;;10.40;99.90;;;;;;5131560;27;20014;-65
2023/03/21 07:36:43;;;;;;;;;;;10.40;99.90;;;;;;5117917;27;19916;-64
2023/03/21 07:39:08;;;;;;;;;;;10.50;99.90;;;;;;5118685;27;19964;-65
2023/03/21 07:41:34;;;;;;;;;;;10.50;99.90;;;;;;5126445;27;19947;-65
2023/03/21 07:44:00;;;;;;;;;;;10.60;99.90;;;;;;5123217;27;19982;-65
2023/03/21 07:46:25;;;;;;;;;;;10.50;99.90;;;;;;5127902;27;20010;-65
2023/03/21 07:51:54;;;;;;;;;;;10.60;99.90;;;;;;5115129;27;19988;-65
2023/03/21 07:54:21;;;;;;;;;;;10.60;99.90;;;;;;5126564;27;20347;-66
2023/03/21 07:56:47;;;;;;;;;;;10.60;99.90;;;;;;5122035;27;20471;-65
2023/03/21 07:59:13;;;;;;;;;;;10.60;99.90;;;;;;5124104;27;20355;-66
2023/03/21 08:01:38;;;;;;;;;;;10.60;99.90;;;;;;5119569;27;19980;-64
2023/03/21 08:04:04;;;;;;;;;;;10.60;99.90;;;;;;5108655;27;19915;-63
2023/03/21 08:06:31;;;;;;;;;;;10.60;99.90;;;;;;5104167;27;19915;-66
2023/03/21 08:09:00;;;;;;;;;;;10.60;99.90;;;;;;5118896;27;20423;-65
2023/03/21 08:11:26;;;;;;;;;;;10.70;99.90;;;;;;5116252;27;19933;-65
2023/03/21 08:13:52;;;;;;;;;;;10.70;99.90;;;;;;5129076;27;19943;-65
2023/03/21 08:16:18;;;;;;;;;;;10.80;99.90;;;;;;5128308;27;19912;-63
2023/03/21 08:18:43;;;;;;;;;;;10.90;99.90;;;;;;5117574;27;19919;-66
2023/03/21 08:21:09;;;;;;;;;;;11.00;99.90;;;;;;5124202;27;19916;-65
2023/03/21 08:23:35;;;;;;;;;;;11.20;99.90;;;;;;5118648;27;19911;-64
2023/03/21 08:26:01;;;;;;;;;;;11.30;99.90;;;;;;5120885;27;20332;-65
2023/03/21 08:28:27;;;;;;;;;;;11.40;99.90;;;;;;5117079;27;19916;-65
2023/03/21 08:30:53;;;;;;;;;;;11.50;99.90;;;;;;5126979;27;19915;-64
2023/03/21 08:33:18;;;;;;;;;;;11.50;99.90;;;;;;5118557;27;19964;-64
2023/03/21 08:35:44;;;;;;;;;;;11.50;99.90;;;;;;5123637;27;19912;-63
2023/03/21 08:38:11;;;;;;;;;;;11.50;99.90;;;;;;5125361;27;19919;-65
2023/03/21 08:40:36;;;;;;;;;;;11.60;99.90;;;;;;5125816;27;19911;-65
2023/03/21 08:43:02;;;;;;;;;;;11.60;99.90;;;;;;5110864;27;20299;-65
2023/03/21 08:45:28;;;;;;;;;;;11.60;99.90;;;;;;5121945;27;19915;-63
2023/03/21 08:47:53;;;;;;;;;;;11.70;99.90;;;;;;5122404;27;19915;-64
2023/03/21 08:50:20;;;;;;;;;;;11.70;99.90;;;;;;5103409;27;19919;-65
2023/03/21 08:52:46;;;;;;;;;;;11.70;99.90;;;;;;5122183;27;19962;-65
2023/03/21 08:55:12;;;;;;;;;;;11.70;99.90;;;;;;5128723;27;19954;-65
2023/03/21 08:57:38;;;;;;;;;;;11.70;99.90;;;;;;5119200;27;19919;-65
2023/03/21 09:00:12;;;;;;;;;;;11.80;99.90;;;;;;5118410;27;19912;-65
2023/03/21 09:02:38;;;;;;;;;;;12.00;99.90;;;;;;5111672;28;19916;-67
2023/03/21 09:05:06;;;;;;;;;;;12.00;99.90;;;;;;5123536;27;19915;-67
2023/03/21 09:07:33;;;;;;;;;;;12.10;99.90;;;;;;5118282;27;19926;-65
2023/03/21 09:09:59;;;;;;;;;;;12.20;99.90;;;;;;5125380;27;20382;-65
2023/03/21 09:12:25;;;;;;;;;;;12.20;99.90;;;;;;5116912;28;19912;-65
2023/03/21 09:14:52;;;;;;;;;;;12.20;99.90;;;;;;5123185;28;20430;-65
2023/03/21 09:17:17;;;;;;;;;;;12.10;99.90;;;;;;5126898;28;20013;-65
2023/03/21 09:19:45;;;;;;;;;;;12.30;99.90;;;;;;5117371;27;21573;-64
2023/03/21 09:22:13;;;;;;;;;;;12.30;99.90;;;;;;5118360;27;19916;-65
2023/03/21 09:24:40;;;;;;;;;;;12.30;99.90;;;;;;5123555;27;20292;-65
2023/03/21 09:27:06;;;;;;;;;;;12.40;99.90;;;;;;5123641;28;20295;-66
2023/03/21 09:29:32;;;;;;;;;;;12.40;99.90;;;;;;5119657;28;19912;-65
2023/03/21 09:31:58;;;;;;;;;;;12.40;99.90;;;;;;5119691;28;19970;-65
2023/03/21 09:34:25;;;;;;;;;;;12.30;99.90;;;;;;5131249;27;19923;-64
2023/03/21 09:36:55;;;;;;;;;;;12.20;99.90;;;;;;5123100;27;20370;-64
2023/03/21 09:39:21;;;;;;;;;;;12.20;99.90;;;;;;5114606;27;19947;-65
2023/03/21 09:41:47;;;;;;;;;;;12.20;99.90;;;;;;5106131;28;19965;-64
2023/03/21 09:44:24;;;;;;;;;;;12.10;99.90;;;;;;5118182;28;19927;-65
2023/03/21 09:47:12;;;;;;;;;;;12.00;99.90;;;;;;5101821;28;19938;-65
2023/03/21 09:49:48;;;;;;;;;;;11.90;99.90;;;;;;5113852;28;19972;-64
2023/03/21 09:52:23;;;;;;;;;;;12.00;99.90;;;;;;5125546;28;20010;-65
2023/03/21 09:54:49;;;;;;;;;;;12.00;99.90;;;;;;5123007;28;20298;-65
2023/03/21 09:57:24;;;;;;;;;;;11.90;99.90;;;;;;5125132;28;19916;-66
2023/03/21 09:59:52;;;;;;;;;;;11.90;99.90;;;;;;5118664;28;20348;-66
2023/03/21 10:02:38;;;;;;;;;;;12.10;99.90;;;;;;5122916;27;19919;-65
2023/03/21 10:05:21;;;;;;;;;;;12.10;99.90;;;;;;5122630;28;19922;-66
2023/03/21 10:07:52;;;;;;;;;;;12.40;99.90;;;;;;5122057;28;19911;-66
2023/03/21 10:10:24;;;;;;;;;;;12.60;99.90;;;;;;5117336;27;19911;-65
2023/03/21 10:12:50;;;;;;;;;;;12.70;99.90;;;;;;5114722;27;19919;-65
2023/03/21 10:15:18;;;;;;;;;;;12.60;99.90;;;;;;5128464;27;19986;-66
2023/03/21 10:17:47;;;;;;;;;;;12.60;99.90;;;;;;5120637;27;19916;-65
2023/03/21 10:20:20;;;;;;;;;;;12.60;99.90;;;;;;5127755;27;19938;-66
2023/03/21 10:22:46;;;;;;;;;;;12.60;99.90;;;;;;5111203;27;19972;-65
2023/03/21 10:25:23;;;;;;;;;;;12.50;99.90;;;;;;5125327;27;20005;-65
2023/03/21 10:27:50;;;;;;;;;;;12.50;99.90;;;;;;5121700;27;20374;-66
2023/03/21 10:30:39;;;;;;;;;;;12.60;99.90;;;;;;5122959;27;19919;-66
2023/03/21 10:33:08;;;;;;;;;;;12.80;99.90;;;;;;5113405;27;20010;-64
2023/03/21 10:35:35;;;;;;;;;;;12.70;99.90;;;;;;5125253;27;19964;-65
2023/03/21 10:38:02;;;;;;;;;;;12.80;99.90;;;;;;5125114;27;19912;-64
2023/03/21 10:40:28;;;;;;;;;;;13.00;99.90;;;;;;5120603;27;19923;-66
2023/03/21 10:42:55;;;;;;;;;;;13.10;99.90;;;;;;5111373;27;20294;-66
2023/03/21 10:45:21;;;;;;;;;;;13.30;99.90;;;;;;5129776;27;19911;-66
2023/03/21 10:47:48;;;;;;;;;;;13.30;99.90;;;;;;5123941;27;19919;-66
2023/03/21 10:50:16;;;;;;;;;;;13.40;99.90;;;;;;5124530;27;20394;-65
2023/03/21 10:52:45;;;;;;;;;;;13.50;99.90;;;;;;5116809;27;19922;-65
2023/03/21 10:55:20;;;;;;;;;;;13.50;99.90;;;;;;5119380;27;20013;-66
2023/03/21 10:57:46;;;;;;;;;;;13.60;99.90;;;;;;5095513;27;19916;-65
2023/03/21 11:00:21;;;;;;;;;;;13.90;99.90;;;;;;5124511;27;19919;-65
2023/03/21 11:02:48;;;;;;;;;;;13.80;99.90;;;;;;5122470;27;19981;-65
2023/03/21 11:05:21;;;;;;;;;;;13.70;99.90;;;;;;5123934;27;19911;-65
2023/03/21 11:07:54;;;;;;;;;;;13.70;99.90;;;;;;5121130;27;19916;-65
2023/03/21 11:10:28;;;;;;;;;;;13.60;99.90;;;;;;5118404;27;20366;-66
2023/03/21 11:13:00;;;;;;;;;;;13.90;99.90;;;;;;5114170;27;19916;-65
2023/03/21 11:15:52;;;;;;;;;;;13.70;99.90;;;;;;5107003;27;20312;-63
2023/03/21 11:18:20;;;;;;;;;;;13.40;99.90;;;;;;5119311;27;19915;-69
2023/03/21 11:20:50;;;;;;;;;;;13.30;99.90;;;;;;5115911;27;19920;-65
2023/03/21 11:23:16;;;;;;;;;;;13.50;99.90;;;;;;5121422;27;19915;-64
2023/03/21 11:25:41;;;;;;;;;;;13.10;99.90;;;;;;5136019;27;20003;-66
2023/03/21 11:28:15;;;;;;;;;;;13.00;99.90;;;;;;5123090;27;20053;-65
2023/03/21 11:30:54;;;;;;;;;;;13.20;99.90;;;;;;5120338;27;19916;-65
2023/03/21 11:33:21;;;;;;;;;;;13.30;99.90;;;;;;5128062;27;19955;-64
2023/03/21 11:36:00;;;;;;;;;;;13.40;99.90;;;;;;5118480;27;19912;-62
2023/03/21 11:38:29;;;;;;;;;;;13.20;99.90;;;;;;5124748;27;19918;-64
2023/03/21 11:40:58;;;;;;;;;;;13.10;99.90;;;;;;5130390;27;19934;-64
2023/03/21 11:43:25;;;;;;;;;;;13.00;99.90;;;;;;5110070;27;20297;-63
2023/03/21 11:45:55;;;;;;;;;;;13.10;99.90;;;;;;5128392;27;19915;-63
2023/03/21 11:48:21;;;;;;;;;;;13.30;99.90;;;;;;5126769;27;19911;-63
2023/03/21 11:50:49;;;;;;;;;;;13.40;99.90;;;;;;5120669;27;19912;-63
2023/03/21 11:53:35;;;;;;;;;;;13.40;99.90;;;;;;5127394;27;19924;-63
2023/03/21 11:56:07;;;;;;;;;;;13.60;99.90;;;;;;5121402;27;20287;-63
2023/03/21 11:58:36;;;;;;;;;;;13.80;99.90;;;;;;5125958;27;19930;-63
2023/03/21 12:01:21;;;;;;;;;;;13.80;99.90;;;;;;5117506;27;20396;-63
2023/03/21 12:04:06;;;;;;;;;;;13.90;99.90;;;;;;5127861;27;19998;-64
2023/03/21 12:06:37;;;;;;;;;;;13.60;99.90;;;;;;5124550;27;19994;-64
2023/03/21 12:09:05;;;;;;;;;;;13.90;99.90;;;;;;5105195;28;19912;-63
2023/03/21 12:11:37;;;;;;;;;;;14.10;99.90;;;;;;5119078;27;20359;-64
2023/03/21 12:14:23;;;;;;;;;;;14.50;99.90;;;;;;5126078;27;19942;-64
2023/03/21 12:17:11;;;;;;;;;;;14.70;99.90;;;;;;5121966;27;20286;-64
2023/03/21 12:19:57;;;;;;;;;;;14.90;99.90;;;;;;5121996;27;20287;-63
2023/03/21 12:22:36;;;;;;;;;;;15.00;99.90;;;;;;5129985;27;19912;-64
2023/03/21 12:25:10;;;;;;;;;;;15.10;99.90;;;;;;5120159;27;20019;-64
2023/03/21 12:27:51;;;;;;;;;;;14.80;99.90;;;;;;5118707;27;19915;-64
2023/03/21 12:30:17;;;;;;;;;;;14.80;99.90;;;;;;5130065;27;19918;-63
2023/03/21 12:32:49;;;;;;;;;;;14.70;99.90;;;;;;5128730;27;19915;-64
2023/03/21 12:35:29;;;;;;;;;;;14.50;99.90;;;;;;5129975;27;20018;-63
2023/03/21 12:38:16;;;;;;;;;;;14.40;99.90;;;;;;5122686;27;19915;-63
2023/03/21 12:40:57;;;;;;;;;;;14.30;99.90;;;;;;5101738;27;19911;-63
2023/03/21 12:43:28;;;;;;;;;;;14.00;99.90;;;;;;5119879;27;20391;-65
2023/03/21 12:46:02;;;;;;;;;;;13.80;99.90;;;;;;5118974;27;19915;-63
2023/03/21 12:48:47;;;;;;;;;;;14.00;99.90;;;;;;5104645;27;19950;-63
2023/03/21 12:51:14;;;;;;;;;;;14.00;99.90;;;;;;5112280;27;19968;-63
2023/03/21 12:53:40;;;;;;;;;;;13.90;99.90;;;;;;5109513;27;20354;-63
2023/03/21 12:56:08;;;;;;;;;;;14.00;99.90;;;;;;5116209;27;19912;-64
2023/03/21 12:58:38;;;;;;;;;;;14.10;99.90;;;;;;5111611;27;19923;-63
2023/03/21 13:01:05;;;;;;;;;;;13.80;99.90;;;;;;5112176;27;19947;-63
2023/03/21 13:03:42;;;;;;;;;;;13.90;99.90;;;;;;5112591;27;20324;-64
2023/03/21 13:06:16;;;;;;;;;;;13.70;99.90;;;;;;5120299;27;19956;-64
2023/03/21 13:08:48;;;;;;;;;;;13.70;99.90;;;;;;5117649;27;19923;-65
2023/03/21 13:11:16;;;;;;;;;;;13.90;99.90;;;;;;5117515;27;19912;-64
2023/03/21 13:13:46;;;;;;;;;;;14.00;99.90;;;;;;5117567;27;19920;-65
2023/03/21 13:16:19;;;;;;;;;;;13.80;99.90;;;;;;5123673;27;19911;-64
2023/03/21 13:18:55;;;;;;;;;;;13.90;99.90;;;;;;5115664;27;19918;-64
2023/03/21 13:21:39;;;;;;;;;;;13.70;99.90;;;;;;5117812;27;19922;-64
2023/03/21 13:24:05;;;;;;;;;;;13.40;99.90;;;;;;5114835;27;19919;-63
2023/03/21 13:26:40;;;;;;;;;;;13.20;99.90;;;;;;5118097;27;19919;-64
2023/03/21 13:29:18;;;;;;;;;;;13.50;99.90;;;;;;5118538;27;19919;-63
2023/03/21 13:31:46;;;;;;;;;;;13.40;99.90;;;;;;5119543;27;19919;-63
2023/03/21 13:34:13;;;;;;;;;;;13.40;99.90;;;;;;5126000;27;19927;-64
2023/03/21 13:36:40;;;;;;;;;;;13.50;99.90;;;;;;5112496;27;19918;-64
2023/03/21 13:39:14;;;;;;;;;;;13.50;99.90;;;;;;5117274;28;19919;-64
2023/03/21 13:41:42;;;;;;;;;;;13.90;99.90;;;;;;5118064;28;20371;-64
2023/03/21 13:44:08;;;;;;;;;;;13.90;99.90;;;;;;5102618;27;20279;-64
2023/03/21 13:46:41;;;;;;;;;;;14.00;99.90;;;;;;5129738;27;19923;-64
2023/03/21 13:49:07;;;;;;;;;;;14.60;99.90;;;;;;5133534;27;19911;-65
2023/03/21 13:51:35;;;;;;;;;;;15.10;99.90;;;;;;5125897;27;19919;-64
2023/03/21 13:54:01;;;;;;;;;;;15.20;99.90;;;;;;5140430;27;19919;-64
2023/03/21 13:56:27;;;;;;;;;;;15.10;99.90;;;;;;5131134;27;20378;-64
2023/03/21 13:59:00;;;;;;;;;;;15.10;99.90;;;;;;5124381;27;19956;-63
2023/03/21 14:01:33;;;;;;;;;;;15.60;99.90;;;;;;5126503;27;19911;-64
2023/03/21 14:04:01;;;;;;;;;;;15.90;99.90;;;;;;5127724;27;19918;-64
2023/03/21 14:06:36;;;;;;;;;;;15.50;99.90;;;;;;5132314;27;19919;-64
2023/03/21 14:09:02;;;;;;;;;;;15.20;99.90;;;;;;5121260;27;19935;-63
2023/03/21 14:11:30;;;;;;;;;;;14.90;99.90;;;;;;5114506;27;20364;-66
2023/03/21 14:13:58;;;;;;;;;;;15.00;99.90;;;;;;5127943;27;20625;-65
2023/03/21 14:16:25;;;;;;;;;;;15.70;99.90;;;;;;5126164;27;19920;-65
2023/03/21 14:18:52;;;;;;;;;;;16.00;99.90;;;;;;5117816;27;20329;-64
2023/03/21 14:21:19;;;;;;;;;;;15.50;99.90;;;;;;5110986;27;19912;-64
2023/03/21 14:23:45;;;;;;;;;;;15.50;99.90;;;;;;5121376;27;19912;-64
2023/03/21 14:26:12;;;;;;;;;;;15.90;99.90;;;;;;5131607;27;19912;-63
2023/03/21 14:28:40;;;;;;;;;;;15.80;99.90;;;;;;5117307;27;20347;-64
2023/03/21 14:31:06;;;;;;;;;;;16.00;99.90;;;;;;5124971;27;19943;-65
2023/03/21 14:33:36;;;;;;;;;;;15.80;99.90;;;;;;5123100;27;20003;-65